sensor_id;sensor_type;location;lat;lon;timestamp;temperature;humidity
33741;DHT22;20065;48.380;10.892;2023-04-15T00:02:26;7.70;99.90
33741;DHT22;20065;48.380;10.892;2023-04-15T00:05:12;7.80;99.90
33741;DHT22;20065;48.380;10.892;2023-04-15T00:07:59;7.90;99.90
33741;DHT22;20065;48.380;10.892;2023-04-15T00:10:46;7.90;99.90
33741;DHT22;20065;48.380;10.892;2023-04-15T00:13:32;7.80;99.90
33741;DHT22;20065;48.380;10.892;2023-04-15T00:16:19;7.90;99.90
33741;DHT22;20065;48.380;10.892;2023-04-15T00:19:06;7.90;99.90
33741;DHT22;20065;48.380;10.892;2023-04-15T00:21:52;7.90;99.90
33741;DHT22;20065;48.380;10.892;2023-04-15T00:24:38;7.90;99.90
33741;DHT22;20065;48.380;10.892;2023-04-15T00:27:24;7.80;99.90
33741;DHT22;20065;48.380;10.892;2023-04-15T00:30:11;7.70;99.90
33741;DHT22;20065;48.380;10.892;2023-04-15T00:32:57;7.60;99.90
33741;DHT22;20065;48.380;10.892;2023-04-15T00:35:43;7.40;99.90
33741;DHT22;20065;48.380;10.892;2023-04-15T00:38:29;7.40;99.90
33741;DHT22;20065;48.380;10.892;2023-04-15T00:41:17;7.30;99.90
33741;DHT22;20065;48.380;10.892;2023-04-15T00:44:05;7.30;99.90
33741;DHT22;20065;48.380;10.892;2023-04-15T00:46:52;7.20;99.90
33741;DHT22;20065;48.380;10.892;2023-04-15T00:49:38;7.20;99.90
33741;DHT22;20065;48.380;10.892;2023-04-15T00:52:25;7.10;99.90
33741;DHT22;20065;48.380;10.892;2023-04-15T00:55:12;7.00;99.90
33741;DHT22;20065;48.380;10.892;2023-04-15T00:57:58;7.00;99.90
33741;DHT22;20065;48.380;10.892;2023-04-15T01:00:45;6.90;99.90
33741;DHT22;20065;48.380;10.892;2023-04-15T01:03:31;6.90;99.90
33741;DHT22;20065;48.380;10.892;2023-04-15T01:06:18;6.90;99.90
33741;DHT22;20065;48.380;10.892;2023-04-15T01:09:04;6.90;99.90
33741;DHT22;20065;48.380;10.892;2023-04-15T01:11:50;6.90;99.90
33741;DHT22;20065;48.380;10.892;2023-04-15T01:14:37;7.00;99.90
33741;DHT22;20065;48.380;10.892;2023-04-15T01:17:23;6.80;99.90
33741;DHT22;20065;48.380;10.892;2023-04-15T01:20:10;6.70;99.90
33741;DHT22;20065;48.380;10.892;2023-04-15T01:22:57;6.60;99.90
33741;DHT22;20065;48.380;10.892;2023-04-15T01:25:44;6.60;99.90
33741;DHT22;20065;48.380;10.892;2023-04-15T01:28:31;6.50;99.90
33741;DHT22;20065;48.380;10.892;2023-04-15T01:31:18;6.50;99.90
33741;DHT22;20065;48.380;10.892;2023-04-15T01:34:04;6.50;99.90
33741;DHT22;20065;48.380;10.892;2023-04-15T01:36:50;6.40;99.90
33741;DHT22;20065;48.380;10.892;2023-04-15T01:39:37;6.40;99.90
33741;DHT22;20065;48.380;10.892;2023-04-15T01:42:24;6.40;99.90
33741;DHT22;20065;48.380;10.892;2023-04-15T01:45:10;6.30;99.90
33741;DHT22;20065;48.380;10.892;2023-04-15T01:47:57;6.20;99.90
33741;DHT22;20065;48.380;10.892;2023-04-15T01:50:44;6.20;99.90
33741;DHT22;20065;48.380;10.892;2023-04-15T01:53:37;6.20;99.90
33741;DHT22;20065;48.380;10.892;2023-04-15T01:56:23;6.20;99.90
33741;DHT22;20065;48.380;10.892;2023-04-15T01:59:09;6.20;99.90
33741;DHT22;20065;48.380;10.892;2023-04-15T02:01:57;6.10;99.90
33741;DHT22;20065;48.380;10.892;2023-04-15T02:04:46;6.20;99.90
33741;DHT22;20065;48.380;10.892;2023-04-15T02:07:32;6.20;99.90
33741;DHT22;20065;48.380;10.892;2023-04-15T02:10:18;6.10;99.90
33741;DHT22;20065;48.380;10.892;2023-04-15T02:13:04;6.10;99.90
33741;DHT22;20065;48.380;10.892;2023-04-15T02:15:51;6.10;99.90
33741;DHT22;20065;48.380;10.892;2023-04-15T02:18:38;6.10;99.90
33741;DHT22;20065;48.380;10.892;2023-04-15T02:21:28;6.10;99.90
33741;DHT22;20065;48.380;10.892;2023-04-15T02:24:14;6.10;99.90
33741;DHT22;20065;48.380;10.892;2023-04-15T02:27:01;6.20;99.90
33741;DHT22;20065;48.380;10.892;2023-04-15T02:29:48;6.30;99.90
33741;DHT22;20065;48.380;10.892;2023-04-15T02:32:36;6.30;99.90
33741;DHT22;20065;48.380;10.892;2023-04-15T02:35:22;6.30;99.90
33741;DHT22;20065;48.380;10.892;2023-04-15T02:38:11;6.30;99.90
33741;DHT22;20065;48.380;10.892;2023-04-15T02:40:57;6.20;99.90
33741;DHT22;20065;48.380;10.892;2023-04-15T02:43:43;6.20;99.90
33741;DHT22;20065;48.380;10.892;2023-04-15T02:46:29;6.20;99.90
33741;DHT22;20065;48.380;10.892;2023-04-15T02:49:16;6.20;99.90
33741;DHT22;20065;48.380;10.892;2023-04-15T02:52:02;6.10;99.90
33741;DHT22;20065;48.380;10.892;2023-04-15T02:54:48;6.10;99.90
33741;DHT22;20065;48.380;10.892;2023-04-15T02:57:34;6.20;99.90
33741;DHT22;20065;48.380;10.892;2023-04-15T03:00:26;6.10;99.90
33741;DHT22;20065;48.380;10.892;2023-04-15T03:03:13;6.10;99.90
33741;DHT22;20065;48.380;10.892;2023-04-15T03:06:00;6.00;99.90
33741;DHT22;20065;48.380;10.892;2023-04-15T03:08:47;6.00;99.90
33741;DHT22;20065;48.380;10.892;2023-04-15T03:11:34;6.00;99.90
33741;DHT22;20065;48.380;10.892;2023-04-15T03:14:22;6.00;99.90
33741;DHT22;20065;48.380;10.892;2023-04-15T03:17:08;6.00;99.90
33741;DHT22;20065;48.380;10.892;2023-04-15T03:19:54;6.10;99.90
33741;DHT22;20065;48.380;10.892;2023-04-15T03:22:41;6.10;99.90
33741;DHT22;20065;48.380;10.892;2023-04-15T03:25:28;6.10;99.90
33741;DHT22;20065;48.380;10.892;2023-04-15T03:28:14;6.20;99.90
33741;DHT22;20065;48.380;10.892;2023-04-15T03:31:00;6.20;99.90
33741;DHT22;20065;48.380;10.892;2023-04-15T03:33:48;6.10;99.90
33741;DHT22;20065;48.380;10.892;2023-04-15T03:36:34;6.10;99.90
33741;DHT22;20065;48.380;10.892;2023-04-15T03:39:20;6.10;99.90
33741;DHT22;20065;48.380;10.892;2023-04-15T03:42:06;6.10;99.90
33741;DHT22;20065;48.380;10.892;2023-04-15T03:44:52;6.00;99.90
33741;DHT22;20065;48.380;10.892;2023-04-15T03:47:38;6.00;99.90
33741;DHT22;20065;48.380;10.892;2023-04-15T03:50:25;6.00;99.90
33741;DHT22;20065;48.380;10.892;2023-04-15T03:53:11;5.90;99.90
33741;DHT22;20065;48.380;10.892;2023-04-15T03:55:57;5.70;99.90
33741;DHT22;20065;48.380;10.892;2023-04-15T03:58:43;5.60;99.90
33741;DHT22;20065;48.380;10.892;2023-04-15T04:01:29;5.60;99.90
33741;DHT22;20065;48.380;10.892;2023-04-15T04:04:16;5.60;99.90
33741;DHT22;20065;48.380;10.892;2023-04-15T04:07:02;5.50;99.90
33741;DHT22;20065;48.380;10.892;2023-04-15T04:09:48;5.50;99.90
33741;DHT22;20065;48.380;10.892;2023-04-15T04:12:34;5.60;99.90
33741;DHT22;20065;48.380;10.892;2023-04-15T04:15:20;5.70;99.90
33741;DHT22;20065;48.380;10.892;2023-04-15T04:18:06;5.80;99.90
33741;DHT22;20065;48.380;10.892;2023-04-15T04:20:53;5.70;99.90
33741;DHT22;20065;48.380;10.892;2023-04-15T04:23:39;5.70;99.90
33741;DHT22;20065;48.380;10.892;2023-04-15T04:26:25;5.70;99.90
33741;DHT22;20065;48.380;10.892;2023-04-15T04:29:11;5.80;99.90
33741;DHT22;20065;48.380;10.892;2023-04-15T04:31:58;5.80;99.90
33741;DHT22;20065;48.380;10.892;2023-04-15T04:34:44;5.70;99.90
33741;DHT22;20065;48.380;10.892;2023-04-15T04:37:30;5.80;99.90
33741;DHT22;20065;48.380;10.892;2023-04-15T04:40:16;5.80;99.90
33741;DHT22;20065;48.380;10.892;2023-04-15T04:43:02;5.90;99.90
33741;DHT22;20065;48.380;10.892;2023-04-15T04:45:48;6.00;99.90
33741;DHT22;20065;48.380;10.892;2023-04-15T04:48:35;6.00;99.90
33741;DHT22;20065;48.380;10.892;2023-04-15T04:51:21;6.00;99.90
33741;DHT22;20065;48.380;10.892;2023-04-15T04:54:07;5.80;99.90
33741;DHT22;20065;48.380;10.892;2023-04-15T04:56:54;5.90;99.90
33741;DHT22;20065;48.380;10.892;2023-04-15T04:59:40;5.90;99.90
33741;DHT22;20065;48.380;10.892;2023-04-15T05:02:26;5.80;99.90
33741;DHT22;20065;48.380;10.892;2023-04-15T05:05:12;5.70;99.90
33741;DHT22;20065;48.380;10.892;2023-04-15T05:07:59;5.60;99.90
33741;DHT22;20065;48.380;10.892;2023-04-15T05:10:45;5.60;99.90
33741;DHT22;20065;48.380;10.892;2023-04-15T05:13:31;5.70;99.90
33741;DHT22;20065;48.380;10.892;2023-04-15T05:16:17;5.60;99.90
33741;DHT22;20065;48.380;10.892;2023-04-15T05:19:04;5.70;99.90
33741;DHT22;20065;48.380;10.892;2023-04-15T05:21:51;5.70;99.90
33741;DHT22;20065;48.380;10.892;2023-04-15T05:24:37;5.80;99.90
33741;DHT22;20065;48.380;10.892;2023-04-15T05:27:23;5.80;99.90
33741;DHT22;20065;48.380;10.892;2023-04-15T05:30:10;6.00;99.90
33741;DHT22;20065;48.380;10.892;2023-04-15T05:32:56;5.90;99.90
33741;DHT22;20065;48.380;10.892;2023-04-15T05:35:42;5.80;99.90
33741;DHT22;20065;48.380;10.892;2023-04-15T05:38:28;5.80;99.90
33741;DHT22;20065;48.380;10.892;2023-04-15T05:41:15;5.90;99.90
33741;DHT22;20065;48.380;10.892;2023-04-15T05:44:01;5.90;99.90
33741;DHT22;20065;48.380;10.892;2023-04-15T05:46:47;5.90;99.90
33741;DHT22;20065;48.380;10.892;2023-04-15T05:49:33;5.80;99.90
33741;DHT22;20065;48.380;10.892;2023-04-15T05:52:19;5.80;99.90
33741;DHT22;20065;48.380;10.892;2023-04-15T05:55:06;5.70;99.90
33741;DHT22;20065;48.380;10.892;2023-04-15T05:57:52;5.70;99.90
33741;DHT22;20065;48.380;10.892;2023-04-15T06:00:38;5.80;99.90
33741;DHT22;20065;48.380;10.892;2023-04-15T06:03:28;5.70;99.90
33741;DHT22;20065;48.380;10.892;2023-04-15T06:06:15;5.70;99.90
33741;DHT22;20065;48.380;10.892;2023-04-15T06:09:03;5.70;99.90
33741;DHT22;20065;48.380;10.892;2023-04-15T06:11:50;5.80;99.90
33741;DHT22;20065;48.380;10.892;2023-04-15T06:14:37;5.70;99.90
33741;DHT22;20065;48.380;10.892;2023-04-15T06:17:24;5.80;99.90
33741;DHT22;20065;48.380;10.892;2023-04-15T06:20:11;5.80;99.90
33741;DHT22;20065;48.380;10.892;2023-04-15T06:22:57;5.80;99.90
33741;DHT22;20065;48.380;10.892;2023-04-15T06:25:44;5.90;99.90
33741;DHT22;20065;48.380;10.892;2023-04-15T06:28:30;5.90;99.90
33741;DHT22;20065;48.380;10.892;2023-04-15T06:31:16;5.90;99.90
33741;DHT22;20065;48.380;10.892;2023-04-15T06:34:02;5.90;99.90
33741;DHT22;20065;48.380;10.892;2023-04-15T06:36:48;5.90;99.90
33741;DHT22;20065;48.380;10.892;2023-04-15T06:39:35;6.00;99.90
33741;DHT22;20065;48.380;10.892;2023-04-15T06:42:21;6.00;99.90
33741;DHT22;20065;48.380;10.892;2023-04-15T06:45:08;6.10;99.90
33741;DHT22;20065;48.380;10.892;2023-04-15T06:47:54;6.10;99.90
33741;DHT22;20065;48.380;10.892;2023-04-15T06:50:40;6.20;99.90
33741;DHT22;20065;48.380;10.892;2023-04-15T06:53:27;6.30;99.90
33741;DHT22;20065;48.380;10.892;2023-04-15T06:56:13;6.40;99.90
33741;DHT22;20065;48.380;10.892;2023-04-15T06:58:59;6.30;99.90
33741;DHT22;20065;48.380;10.892;2023-04-15T07:01:46;6.40;99.90
33741;DHT22;20065;48.380;10.892;2023-04-15T07:04:32;6.40;99.90
33741;DHT22;20065;48.380;10.892;2023-04-15T07:07:18;6.40;99.90
33741;DHT22;20065;48.380;10.892;2023-04-15T07:10:05;6.40;99.90
33741;DHT22;20065;48.380;10.892;2023-04-15T07:12:51;6.30;99.90
33741;DHT22;20065;48.380;10.892;2023-04-15T07:15:38;6.50;99.90
33741;DHT22;20065;48.380;10.892;2023-04-15T07:18:24;6.50;99.90
33741;DHT22;20065;48.380;10.892;2023-04-15T07:21:10;6.50;99.90
33741;DHT22;20065;48.380;10.892;2023-04-15T07:23:56;6.60;99.90
33741;DHT22;20065;48.380;10.892;2023-04-15T07:26:43;6.70;99.90
33741;DHT22;20065;48.380;10.892;2023-04-15T07:29:30;6.70;99.90
33741;DHT22;20065;48.380;10.892;2023-04-15T07:32:16;6.80;99.90
33741;DHT22;20065;48.380;10.892;2023-04-15T07:35:02;6.90;99.90
33741;DHT22;20065;48.380;10.892;2023-04-15T07:37:49;7.00;99.90
33741;DHT22;20065;48.380;10.892;2023-04-15T07:40:35;7.00;99.90
33741;DHT22;20065;48.380;10.892;2023-04-15T07:43:21;7.10;99.90
33741;DHT22;20065;48.380;10.892;2023-04-15T07:46:07;7.30;99.90
33741;DHT22;20065;48.380;10.892;2023-04-15T07:48:54;7.30;99.90
33741;DHT22;20065;48.380;10.892;2023-04-15T07:51:41;7.30;99.90
33741;DHT22;20065;48.380;10.892;2023-04-15T07:54:31;7.40;99.90
33741;DHT22;20065;48.380;10.892;2023-04-15T07:57:18;7.40;99.90
33741;DHT22;20065;48.380;10.892;2023-04-15T08:00:05;7.40;99.90
33741;DHT22;20065;48.380;10.892;2023-04-15T08:03:01;7.40;99.90
33741;DHT22;20065;48.380;10.892;2023-04-15T08:05:48;7.50;99.90
33741;DHT22;20065;48.380;10.892;2023-04-15T08:08:34;7.60;99.90
33741;DHT22;20065;48.380;10.892;2023-04-15T08:11:20;7.70;99.90
33741;DHT22;20065;48.380;10.892;2023-04-15T08:14:07;7.80;99.90
33741;DHT22;20065;48.380;10.892;2023-04-15T08:16:54;7.80;99.90
33741;DHT22;20065;48.380;10.892;2023-04-15T08:19:40;8.00;99.90
33741;DHT22;20065;48.380;10.892;2023-04-15T08:22:27;8.10;99.90
33741;DHT22;20065;48.380;10.892;2023-04-15T08:25:13;8.50;99.90
33741;DHT22;20065;48.380;10.892;2023-04-15T08:28:03;8.40;99.90
33741;DHT22;20065;48.380;10.892;2023-04-15T08:30:52;8.40;99.90
33741;DHT22;20065;48.380;10.892;2023-04-15T08:33:38;8.50;99.90
33741;DHT22;20065;48.380;10.892;2023-04-15T08:36:24;8.40;99.90
33741;DHT22;20065;48.380;10.892;2023-04-15T08:39:11;8.50;99.90
33741;DHT22;20065;48.380;10.892;2023-04-15T08:42:02;8.70;99.90
33741;DHT22;20065;48.380;10.892;2023-04-15T08:44:50;8.80;99.90
33741;DHT22;20065;48.380;10.892;2023-04-15T08:47:37;8.80;99.90
33741;DHT22;20065;48.380;10.892;2023-04-15T08:50:31;8.90;99.90
33741;DHT22;20065;48.380;10.892;2023-04-15T08:53:17;9.10;99.90
33741;DHT22;20065;48.380;10.892;2023-04-15T08:56:05;8.80;99.90
33741;DHT22;20065;48.380;10.892;2023-04-15T08:58:52;8.50;99.90
33741;DHT22;20065;48.380;10.892;2023-04-15T09:01:39;8.40;99.90
33741;DHT22;20065;48.380;10.892;2023-04-15T09:04:26;8.50;99.90
33741;DHT22;20065;48.380;10.892;2023-04-15T09:07:14;8.40;99.90
33741;DHT22;20065;48.380;10.892;2023-04-15T09:10:02;8.60;99.90
33741;DHT22;20065;48.380;10.892;2023-04-15T09:12:49;8.70;99.90
33741;DHT22;20065;48.380;10.892;2023-04-15T09:15:37;9.00;99.90
33741;DHT22;20065;48.380;10.892;2023-04-15T09:18:28;9.20;99.90
33741;DHT22;20065;48.380;10.892;2023-04-15T09:21:16;9.30;99.90
33741;DHT22;20065;48.380;10.892;2023-04-15T09:24:03;9.30;99.90
33741;DHT22;20065;48.380;10.892;2023-04-15T09:26:53;9.40;99.90
33741;DHT22;20065;48.380;10.892;2023-04-15T09:29:40;9.50;99.90
33741;DHT22;20065;48.380;10.892;2023-04-15T09:32:27;9.60;99.90
33741;DHT22;20065;48.380;10.892;2023-04-15T09:35:13;9.70;99.90
33741;DHT22;20065;48.380;10.892;2023-04-15T09:38:05;9.50;99.90
33741;DHT22;20065;48.380;10.892;2023-04-15T09:40:52;9.70;99.90
33741;DHT22;20065;48.380;10.892;2023-04-15T09:43:39;9.90;99.90
33741;DHT22;20065;48.380;10.892;2023-04-15T09:46:44;10.10;99.90
33741;DHT22;20065;48.380;10.892;2023-04-15T09:49:31;10.10;99.90
33741;DHT22;20065;48.380;10.892;2023-04-15T09:52:20;10.20;99.90
33741;DHT22;20065;48.380;10.892;2023-04-15T09:55:10;10.40;99.90
33741;DHT22;20065;48.380;10.892;2023-04-15T09:57:57;10.70;99.90
33741;DHT22;20065;48.380;10.892;2023-04-15T10:00:43;11.30;99.90
33741;DHT22;20065;48.380;10.892;2023-04-15T10:03:31;11.80;99.90
33741;DHT22;20065;48.380;10.892;2023-04-15T10:06:19;12.10;99.90
33741;DHT22;20065;48.380;10.892;2023-04-15T10:09:11;12.10;99.90
33741;DHT22;20065;48.380;10.892;2023-04-15T10:11:58;12.70;99.90
33741;DHT22;20065;48.380;10.892;2023-04-15T10:14:55;12.80;99.90
33741;DHT22;20065;48.380;10.892;2023-04-15T10:17:44;13.00;99.90
33741;DHT22;20065;48.380;10.892;2023-04-15T10:20:30;13.00;99.90
33741;DHT22;20065;48.380;10.892;2023-04-15T10:23:17;13.10;99.90
33741;DHT22;20065;48.380;10.892;2023-04-15T10:26:04;13.40;99.90
33741;DHT22;20065;48.380;10.892;2023-04-15T10:28:51;13.60;99.90
33741;DHT22;20065;48.380;10.892;2023-04-15T10:31:39;13.70;99.90
33741;DHT22;20065;48.380;10.892;2023-04-15T10:34:26;14.30;99.90
33741;DHT22;20065;48.380;10.892;2023-04-15T10:37:18;15.00;99.90
33741;DHT22;20065;48.380;10.892;2023-04-15T10:43:24;15.10;98.60
33741;DHT22;20065;48.380;10.892;2023-04-15T10:46:11;14.70;99.30
33741;DHT22;20065;48.380;10.892;2023-04-15T10:51:57;13.60;99.90
33741;DHT22;20065;48.380;10.892;2023-04-15T10:54:44;12.80;99.90
33741;DHT22;20065;48.380;10.892;2023-04-15T10:57:38;12.10;99.90
33741;DHT22;20065;48.380;10.892;2023-04-15T11:00:30;11.50;99.90
33741;DHT22;20065;48.380;10.892;2023-04-15T11:03:36;11.30;99.90
33741;DHT22;20065;48.380;10.892;2023-04-15T11:06:43;11.40;99.90
33741;DHT22;20065;48.380;10.892;2023-04-15T11:09:33;11.60;99.90
33741;DHT22;20065;48.380;10.892;2023-04-15T11:12:19;11.60;99.90
33741;DHT22;20065;48.380;10.892;2023-04-15T11:18:19;12.20;99.90
33741;DHT22;20065;48.380;10.892;2023-04-15T11:21:06;12.20;96.60
33741;DHT22;20065;48.380;10.892;2023-04-15T11:23:54;12.30;96.10
33741;DHT22;20065;48.380;10.892;2023-04-15T11:26:40;12.60;98.20
33741;DHT22;20065;48.380;10.892;2023-04-15T11:29:32;12.60;97.00
33741;DHT22;20065;48.380;10.892;2023-04-15T11:32:20;12.90;96.30
33741;DHT22;20065;48.380;10.892;2023-04-15T11:35:06;12.90;94.20
33741;DHT22;20065;48.380;10.892;2023-04-15T11:37:53;12.50;94.80
33741;DHT22;20065;48.380;10.892;2023-04-15T11:40:41;12.40;95.40
33741;DHT22;20065;48.380;10.892;2023-04-15T11:43:30;12.30;94.20
33741;DHT22;20065;48.380;10.892;2023-04-15T11:46:17;12.40;95.10
33741;DHT22;20065;48.380;10.892;2023-04-15T11:49:04;12.30;93.70
33741;DHT22;20065;48.380;10.892;2023-04-15T11:51:50;12.00;92.90
33741;DHT22;20065;48.380;10.892;2023-04-15T11:54:36;11.50;94.00
33741;DHT22;20065;48.380;10.892;2023-04-15T11:57:30;11.70;95.30
33741;DHT22;20065;48.380;10.892;2023-04-15T12:00:18;11.90;96.40
33741;DHT22;20065;48.380;10.892;2023-04-15T12:03:13;12.10;96.70
33741;DHT22;20065;48.380;10.892;2023-04-15T12:09:07;12.10;96.60
33741;DHT22;20065;48.380;10.892;2023-04-15T12:11:57;11.90;97.10
33741;DHT22;20065;48.380;10.892;2023-04-15T12:14:43;12.00;98.00
33741;DHT22;20065;48.380;10.892;2023-04-15T12:17:29;12.00;98.50
33741;DHT22;20065;48.380;10.892;2023-04-15T12:20:25;12.00;98.10
33741;DHT22;20065;48.380;10.892;2023-04-15T12:23:12;12.00;98.50
33741;DHT22;20065;48.380;10.892;2023-04-15T12:25:58;11.80;98.30
33741;DHT22;20065;48.380;10.892;2023-04-15T12:28:53;11.50;98.30
33741;DHT22;20065;48.380;10.892;2023-04-15T12:31:50;11.50;98.90
33741;DHT22;20065;48.380;10.892;2023-04-15T12:34:49;11.60;99.30
33741;DHT22;20065;48.380;10.892;2023-04-15T12:37:35;11.60;99.40
33741;DHT22;20065;48.380;10.892;2023-04-15T12:40:21;11.50;99.90
33741;DHT22;20065;48.380;10.892;2023-04-15T12:43:08;11.40;99.90
33741;DHT22;20065;48.380;10.892;2023-04-15T12:45:54;11.40;99.90
33741;DHT22;20065;48.380;10.892;2023-04-15T12:48:40;11.50;99.90
33741;DHT22;20065;48.380;10.892;2023-04-15T12:51:26;11.60;99.90
33741;DHT22;20065;48.380;10.892;2023-04-15T12:54:12;11.70;99.90
33741;DHT22;20065;48.380;10.892;2023-04-15T12:56:59;11.90;99.90
33741;DHT22;20065;48.380;10.892;2023-04-15T12:59:48;12.00;99.90
33741;DHT22;20065;48.380;10.892;2023-04-15T13:02:34;12.00;99.90
33741;DHT22;20065;48.380;10.892;2023-04-15T13:05:21;11.90;99.90
33741;DHT22;20065;48.380;10.892;2023-04-15T13:08:07;12.00;99.90
33741;DHT22;20065;48.380;10.892;2023-04-15T13:10:53;12.00;99.90
33741;DHT22;20065;48.380;10.892;2023-04-15T13:13:39;12.10;99.90
33741;DHT22;20065;48.380;10.892;2023-04-15T13:16:25;12.00;98.70
33741;DHT22;20065;48.380;10.892;2023-04-15T13:19:12;12.00;98.70
33741;DHT22;20065;48.380;10.892;2023-04-15T13:22:01;11.40;97.60
33741;DHT22;20065;48.380;10.892;2023-04-15T13:24:48;11.40;98.00
33741;DHT22;20065;48.380;10.892;2023-04-15T13:27:38;11.30;98.30
33741;DHT22;20065;48.380;10.892;2023-04-15T13:30:26;11.40;98.60
33741;DHT22;20065;48.380;10.892;2023-04-15T13:33:12;11.00;98.10
33741;DHT22;20065;48.380;10.892;2023-04-15T13:35:59;11.20;99.40
33741;DHT22;20065;48.380;10.892;2023-04-15T13:38:45;11.20;99.60
33741;DHT22;20065;48.380;10.892;2023-04-15T13:41:31;11.20;99.90
33741;DHT22;20065;48.380;10.892;2023-04-15T13:44:17;11.20;99.90
33741;DHT22;20065;48.380;10.892;2023-04-15T13:47:06;11.30;99.90
33741;DHT22;20065;48.380;10.892;2023-04-15T13:49:52;11.30;99.90
33741;DHT22;20065;48.380;10.892;2023-04-15T13:52:41;11.30;99.90
33741;DHT22;20065;48.380;10.892;2023-04-15T13:55:27;11.40;99.90
33741;DHT22;20065;48.380;10.892;2023-04-15T13:58:13;11.40;99.90
33741;DHT22;20065;48.380;10.892;2023-04-15T14:00:59;11.40;99.90
33741;DHT22;20065;48.380;10.892;2023-04-15T14:03:46;11.40;99.90
33741;DHT22;20065;48.380;10.892;2023-04-15T14:06:33;11.50;99.90
33741;DHT22;20065;48.380;10.892;2023-04-15T14:09:20;11.40;99.90
33741;DHT22;20065;48.380;10.892;2023-04-15T14:12:09;11.20;99.90
33741;DHT22;20065;48.380;10.892;2023-04-15T14:14:55;11.00;99.90
33741;DHT22;20065;48.380;10.892;2023-04-15T14:17:42;10.80;99.90
33741;DHT22;20065;48.380;10.892;2023-04-15T14:20:28;10.50;99.90
33741;DHT22;20065;48.380;10.892;2023-04-15T14:23:14;10.40;99.90
33741;DHT22;20065;48.380;10.892;2023-04-15T14:26:00;10.30;99.90
33741;DHT22;20065;48.380;10.892;2023-04-15T14:28:49;10.30;99.90
33741;DHT22;20065;48.380;10.892;2023-04-15T14:31:36;10.00;99.90
33741;DHT22;20065;48.380;10.892;2023-04-15T14:34:23;9.70;99.90
33741;DHT22;20065;48.380;10.892;2023-04-15T14:37:10;9.70;99.90
33741;DHT22;20065;48.380;10.892;2023-04-15T14:39:56;9.90;99.90
33741;DHT22;20065;48.380;10.892;2023-04-15T14:42:42;10.10;99.90
33741;DHT22;20065;48.380;10.892;2023-04-15T14:45:29;10.10;99.90
33741;DHT22;20065;48.380;10.892;2023-04-15T14:48:15;9.90;99.90
33741;DHT22;20065;48.380;10.892;2023-04-15T14:51:01;9.90;99.90
33741;DHT22;20065;48.380;10.892;2023-04-15T14:53:47;9.70;99.90
33741;DHT22;20065;48.380;10.892;2023-04-15T14:56:33;9.70;99.90
33741;DHT22;20065;48.380;10.892;2023-04-15T14:59:20;9.70;99.90
33741;DHT22;20065;48.380;10.892;2023-04-15T15:02:07;9.60;99.90
33741;DHT22;20065;48.380;10.892;2023-04-15T15:04:53;9.30;99.90
33741;DHT22;20065;48.380;10.892;2023-04-15T15:07:39;8.90;99.90
33741;DHT22;20065;48.380;10.892;2023-04-15T15:10:25;8.70;99.90
33741;DHT22;20065;48.380;10.892;2023-04-15T15:13:12;8.80;99.90
33741;DHT22;20065;48.380;10.892;2023-04-15T15:15:58;9.00;99.90
33741;DHT22;20065;48.380;10.892;2023-04-15T15:18:44;8.90;99.90
33741;DHT22;20065;48.380;10.892;2023-04-15T15:21:30;8.70;99.90
33741;DHT22;20065;48.380;10.892;2023-04-15T15:24:17;8.70;99.90
33741;DHT22;20065;48.380;10.892;2023-04-15T15:27:03;8.50;99.90
33741;DHT22;20065;48.380;10.892;2023-04-15T15:29:49;8.20;99.90
33741;DHT22;20065;48.380;10.892;2023-04-15T15:32:35;8.20;99.90
33741;DHT22;20065;48.380;10.892;2023-04-15T15:35:22;8.00;99.90
33741;DHT22;20065;48.380;10.892;2023-04-15T15:38:11;7.90;99.90
33741;DHT22;20065;48.380;10.892;2023-04-15T15:40:57;7.80;99.90
33741;DHT22;20065;48.380;10.892;2023-04-15T15:43:43;7.90;99.90
33741;DHT22;20065;48.380;10.892;2023-04-15T15:46:29;7.90;99.90
33741;DHT22;20065;48.380;10.892;2023-04-15T15:49:18;8.20;99.90
33741;DHT22;20065;48.380;10.892;2023-04-15T15:52:04;8.40;99.90
33741;DHT22;20065;48.380;10.892;2023-04-15T15:54:51;8.50;99.90
33741;DHT22;20065;48.380;10.892;2023-04-15T15:57:37;8.60;99.90
33741;DHT22;20065;48.380;10.892;2023-04-15T16:00:24;8.50;99.90
33741;DHT22;20065;48.380;10.892;2023-04-15T16:03:10;8.40;99.90
33741;DHT22;20065;48.380;10.892;2023-04-15T16:05:56;8.30;99.90
33741;DHT22;20065;48.380;10.892;2023-04-15T16:08:43;8.50;99.90
33741;DHT22;20065;48.380;10.892;2023-04-15T16:11:29;8.70;99.90
33741;DHT22;20065;48.380;10.892;2023-04-15T16:14:15;8.80;99.90
33741;DHT22;20065;48.380;10.892;2023-04-15T16:17:01;9.00;99.90
33741;DHT22;20065;48.380;10.892;2023-04-15T16:19:47;9.00;99.90
33741;DHT22;20065;48.380;10.892;2023-04-15T16:22:34;8.90;99.90
33741;DHT22;20065;48.380;10.892;2023-04-15T16:25:20;8.60;99.90
33741;DHT22;20065;48.380;10.892;2023-04-15T16:28:07;8.30;99.90
33741;DHT22;20065;48.380;10.892;2023-04-15T16:30:54;8.30;99.90
33741;DHT22;20065;48.380;10.892;2023-04-15T16:33:40;8.30;99.90
33741;DHT22;20065;48.380;10.892;2023-04-15T16:36:26;8.30;99.90
33741;DHT22;20065;48.380;10.892;2023-04-15T16:39:13;8.00;99.90
33741;DHT22;20065;48.380;10.892;2023-04-15T16:41:59;7.90;99.90
33741;DHT22;20065;48.380;10.892;2023-04-15T16:44:47;7.60;99.90
33741;DHT22;20065;48.380;10.892;2023-04-15T16:47:33;7.40;99.90
33741;DHT22;20065;48.380;10.892;2023-04-15T16:50:23;7.30;99.90
33741;DHT22;20065;48.380;10.892;2023-04-15T16:53:10;7.30;99.90
33741;DHT22;20065;48.380;10.892;2023-04-15T16:55:56;7.10;99.90
33741;DHT22;20065;48.380;10.892;2023-04-15T16:58:42;7.10;99.90
33741;DHT22;20065;48.380;10.892;2023-04-15T17:01:28;7.20;99.90
33741;DHT22;20065;48.380;10.892;2023-04-15T17:04:14;7.10;99.90
33741;DHT22;20065;48.380;10.892;2023-04-15T17:07:00;7.00;99.90
33741;DHT22;20065;48.380;10.892;2023-04-15T17:09:47;7.20;99.90
33741;DHT22;20065;48.380;10.892;2023-04-15T17:12:33;7.20;99.90
33741;DHT22;20065;48.380;10.892;2023-04-15T17:15:19;7.20;99.90
33741;DHT22;20065;48.380;10.892;2023-04-15T17:18:05;7.30;99.90
33741;DHT22;20065;48.380;10.892;2023-04-15T17:20:54;7.40;99.90
33741;DHT22;20065;48.380;10.892;2023-04-15T17:23:41;7.40;99.90
33741;DHT22;20065;48.380;10.892;2023-04-15T17:26:27;7.30;99.90
33741;DHT22;20065;48.380;10.892;2023-04-15T17:29:13;7.30;99.90
33741;DHT22;20065;48.380;10.892;2023-04-15T17:32:00;7.40;99.90
33741;DHT22;20065;48.380;10.892;2023-04-15T17:34:47;7.40;99.90
33741;DHT22;20065;48.380;10.892;2023-04-15T17:37:34;7.40;99.90
33741;DHT22;20065;48.380;10.892;2023-04-15T17:40:20;7.10;99.90
33741;DHT22;20065;48.380;10.892;2023-04-15T17:43:06;6.80;99.90
33741;DHT22;20065;48.380;10.892;2023-04-15T17:45:52;6.80;99.90